sensor_id;sensor_type;location;lat;lon;timestamp;P1;durP1;ratioP1;P2;durP2;ratioP2
12177;SDS011;6152;48.728;9.256;2023-07-09T00:00:46;2.95;;;2.58;;
12177;SDS011;6152;48.728;9.256;2023-07-09T00:03:20;3.00;;;2.40;;
12177;SDS011;6152;48.728;9.256;2023-07-09T00:05:47;2.72;;;2.53;;
12177;SDS011;6152;48.728;9.256;2023-07-09T00:08:27;3.00;;;2.17;;
12177;SDS011;6152;48.728;9.256;2023-07-09T00:10:55;4.45;;;2.90;;
12177;SDS011;6152;48.728;9.256;2023-07-09T00:13:23;4.70;;;2.63;;
12177;SDS011;6152;48.728;9.256;2023-07-09T00:15:50;3.60;;;2.88;;
12177;SDS011;6152;48.728;9.256;2023-07-09T00:18:26;4.25;;;2.90;;
12177;SDS011;6152;48.728;9.256;2023-07-09T00:20:53;4.28;;;2.85;;
12177;SDS011;6152;48.728;9.256;2023-07-09T00:23:19;3.60;;;2.97;;
12177;SDS011;6152;48.728;9.256;2023-07-09T00:25:45;5.20;;;2.78;;
12177;SDS011;6152;48.728;9.256;2023-07-09T00:28:16;6.55;;;3.25;;
12177;SDS011;6152;48.728;9.256;2023-07-09T00:30:46;4.03;;;3.20;;
12177;SDS011;6152;48.728;9.256;2023-07-09T00:33:14;3.38;;;3.03;;
12177;SDS011;6152;48.728;9.256;2023-07-09T00:35:41;5.68;;;3.08;;
12177;SDS011;6152;48.728;9.256;2023-07-09T00:38:17;3.72;;;3.20;;
12177;SDS011;6152;48.728;9.256;2023-07-09T00:43:24;3.60;;;2.97;;
12177;SDS011;6152;48.728;9.256;2023-07-09T00:48:56;4.25;;;3.22;;
12177;SDS011;6152;48.728;9.256;2023-07-09T00:51:30;4.78;;;3.13;;
12177;SDS011;6152;48.728;9.256;2023-07-09T00:54:00;5.25;;;3.33;;
12177;SDS011;6152;48.728;9.256;2023-07-09T00:56:44;4.25;;;2.78;;
12177;SDS011;6152;48.728;9.256;2023-07-09T00:59:16;4.28;;;3.30;;
12177;SDS011;6152;48.728;9.256;2023-07-09T01:01:46;4.15;;;2.80;;
12177;SDS011;6152;48.728;9.256;2023-07-09T01:04:15;3.85;;;2.80;;
12177;SDS011;6152;48.728;9.256;2023-07-09T01:06:49;3.85;;;3.03;;
12177;SDS011;6152;48.728;9.256;2023-07-09T01:09:17;5.20;;;3.35;;
12177;SDS011;6152;48.728;9.256;2023-07-09T01:11:44;3.58;;;2.70;;
12177;SDS011;6152;48.728;9.256;2023-07-09T01:14:11;4.97;;;3.00;;
12177;SDS011;6152;48.728;9.256;2023-07-09T01:16:46;4.38;;;2.88;;
12177;SDS011;6152;48.728;9.256;2023-07-09T01:19:22;3.40;;;3.10;;
12177;SDS011;6152;48.728;9.256;2023-07-09T01:21:53;4.57;;;2.78;;
12177;SDS011;6152;48.728;9.256;2023-07-09T01:27:33;4.10;;;3.45;;
12177;SDS011;6152;48.728;9.256;2023-07-09T01:30:04;4.32;;;3.10;;
12177;SDS011;6152;48.728;9.256;2023-07-09T01:32:39;3.97;;;3.20;;
12177;SDS011;6152;48.728;9.256;2023-07-09T01:35:10;5.25;;;3.15;;
12177;SDS011;6152;48.728;9.256;2023-07-09T01:37:40;5.35;;;3.60;;
12177;SDS011;6152;48.728;9.256;2023-07-09T01:40:08;4.43;;;3.95;;
12177;SDS011;6152;48.728;9.256;2023-07-09T01:42:37;6.25;;;4.45;;
12177;SDS011;6152;48.728;9.256;2023-07-09T01:45:04;4.60;;;4.15;;
12177;SDS011;6152;48.728;9.256;2023-07-09T01:47:32;6.00;;;4.20;;
12177;SDS011;6152;48.728;9.256;2023-07-09T01:49:58;5.88;;;4.15;;
12177;SDS011;6152;48.728;9.256;2023-07-09T01:52:25;6.70;;;4.60;;
12177;SDS011;6152;48.728;9.256;2023-07-09T01:54:53;8.32;;;4.35;;
12177;SDS011;6152;48.728;9.256;2023-07-09T01:57:21;8.55;;;4.28;;
12177;SDS011;6152;48.728;9.256;2023-07-09T01:59:49;4.60;;;3.90;;
12177;SDS011;6152;48.728;9.256;2023-07-09T02:02:18;4.07;;;3.65;;
12177;SDS011;6152;48.728;9.256;2023-07-09T02:04:45;6.15;;;4.32;;
12177;SDS011;6152;48.728;9.256;2023-07-09T02:07:16;5.40;;;4.00;;
12177;SDS011;6152;48.728;9.256;2023-07-09T02:09:42;5.28;;;4.32;;
12177;SDS011;6152;48.728;9.256;2023-07-09T02:12:09;5.22;;;3.90;;
12177;SDS011;6152;48.728;9.256;2023-07-09T02:14:36;4.88;;;3.55;;
12177;SDS011;6152;48.728;9.256;2023-07-09T02:17:03;3.95;;;3.55;;
12177;SDS011;6152;48.728;9.256;2023-07-09T02:19:29;7.53;;;3.75;;
12177;SDS011;6152;48.728;9.256;2023-07-09T02:21:56;3.40;;;3.10;;
12177;SDS011;6152;48.728;9.256;2023-07-09T02:24:23;5.03;;;3.90;;
12177;SDS011;6152;48.728;9.256;2023-07-09T02:26:57;6.68;;;3.58;;
12177;SDS011;6152;48.728;9.256;2023-07-09T02:29:24;5.97;;;3.72;;
12177;SDS011;6152;48.728;9.256;2023-07-09T02:31:52;5.63;;;3.97;;
12177;SDS011;6152;48.728;9.256;2023-07-09T02:34:20;6.57;;;4.20;;
12177;SDS011;6152;48.728;9.256;2023-07-09T02:36:50;4.93;;;4.18;;
12177;SDS011;6152;48.728;9.256;2023-07-09T02:39:21;6.55;;;3.63;;
12177;SDS011;6152;48.728;9.256;2023-07-09T02:41:48;5.03;;;4.07;;
12177;SDS011;6152;48.728;9.256;2023-07-09T02:44:15;3.47;;;3.15;;
12177;SDS011;6152;48.728;9.256;2023-07-09T02:46:42;3.95;;;3.40;;
12177;SDS011;6152;48.728;9.256;2023-07-09T02:49:09;5.13;;;3.83;;
12177;SDS011;6152;48.728;9.256;2023-07-09T02:51:37;5.68;;;3.70;;
12177;SDS011;6152;48.728;9.256;2023-07-09T02:54:04;3.83;;;3.30;;
12177;SDS011;6152;48.728;9.256;2023-07-09T02:56:30;6.47;;;3.92;;
12177;SDS011;6152;48.728;9.256;2023-07-09T02:58:57;4.63;;;4.20;;
12177;SDS011;6152;48.728;9.256;2023-07-09T03:01:23;4.78;;;3.55;;
12177;SDS011;6152;48.728;9.256;2023-07-09T03:03:52;4.78;;;3.45;;
12177;SDS011;6152;48.728;9.256;2023-07-09T03:06:19;4.97;;;4.10;;
12177;SDS011;6152;48.728;9.256;2023-07-09T03:08:46;6.78;;;4.45;;
12177;SDS011;6152;48.728;9.256;2023-07-09T03:11:13;6.72;;;4.30;;
12177;SDS011;6152;48.728;9.256;2023-07-09T03:13:40;6.00;;;3.60;;
12177;SDS011;6152;48.728;9.256;2023-07-09T03:16:07;5.75;;;3.80;;
12177;SDS011;6152;48.728;9.256;2023-07-09T03:18:34;4.18;;;3.40;;
12177;SDS011;6152;48.728;9.256;2023-07-09T03:21:00;4.93;;;3.75;;
12177;SDS011;6152;48.728;9.256;2023-07-09T03:23:26;4.78;;;3.67;;
12177;SDS011;6152;48.728;9.256;2023-07-09T03:25:52;5.28;;;4.10;;
12177;SDS011;6152;48.728;9.256;2023-07-09T03:28:19;6.47;;;4.70;;
12177;SDS011;6152;48.728;9.256;2023-07-09T03:30:46;4.78;;;3.47;;
12177;SDS011;6152;48.728;9.256;2023-07-09T03:33:14;3.95;;;3.17;;
12177;SDS011;6152;48.728;9.256;2023-07-09T03:35:41;7.50;;;4.07;;
12177;SDS011;6152;48.728;9.256;2023-07-09T03:38:08;5.47;;;3.85;;
12177;SDS011;6152;48.728;9.256;2023-07-09T03:40:36;4.78;;;3.70;;
12177;SDS011;6152;48.728;9.256;2023-07-09T03:43:06;3.90;;;3.33;;
12177;SDS011;6152;48.728;9.256;2023-07-09T03:45:33;4.57;;;3.60;;
12177;SDS011;6152;48.728;9.256;2023-07-09T03:48:00;4.25;;;3.70;;
12177;SDS011;6152;48.728;9.256;2023-07-09T03:50:27;5.10;;;3.55;;
12177;SDS011;6152;48.728;9.256;2023-07-09T03:52:53;4.30;;;3.88;;
12177;SDS011;6152;48.728;9.256;2023-07-09T03:55:19;4.80;;;3.42;;
12177;SDS011;6152;48.728;9.256;2023-07-09T03:57:46;4.75;;;3.33;;
12177;SDS011;6152;48.728;9.256;2023-07-09T04:00:12;4.43;;;3.42;;
12177;SDS011;6152;48.728;9.256;2023-07-09T04:02:39;3.70;;;3.35;;
12177;SDS011;6152;48.728;9.256;2023-07-09T04:05:08;4.90;;;4.15;;
12177;SDS011;6152;48.728;9.256;2023-07-09T04:07:34;3.80;;;3.45;;
12177;SDS011;6152;48.728;9.256;2023-07-09T04:10:01;6.38;;;3.47;;
12177;SDS011;6152;48.728;9.256;2023-07-09T04:12:27;6.53;;;3.40;;
12177;SDS011;6152;48.728;9.256;2023-07-09T04:14:53;5.82;;;4.03;;
12177;SDS011;6152;48.728;9.256;2023-07-09T04:17:19;4.97;;;3.53;;
12177;SDS011;6152;48.728;9.256;2023-07-09T04:19:48;4.60;;;3.88;;
12177;SDS011;6152;48.728;9.256;2023-07-09T04:22:15;4.05;;;3.63;;
12177;SDS011;6152;48.728;9.256;2023-07-09T04:24:41;4.75;;;4.07;;
12177;SDS011;6152;48.728;9.256;2023-07-09T04:27:07;4.85;;;3.63;;
12177;SDS011;6152;48.728;9.256;2023-07-09T04:29:34;4.47;;;3.80;;
12177;SDS011;6152;48.728;9.256;2023-07-09T04:32:01;4.97;;;3.60;;
12177;SDS011;6152;48.728;9.256;2023-07-09T04:34:27;4.40;;;3.80;;
12177;SDS011;6152;48.728;9.256;2023-07-09T04:36:54;6.28;;;3.95;;
12177;SDS011;6152;48.728;9.256;2023-07-09T04:39:20;5.40;;;3.75;;
12177;SDS011;6152;48.728;9.256;2023-07-09T04:41:46;4.68;;;4.03;;
12177;SDS011;6152;48.728;9.256;2023-07-09T04:44:13;4.55;;;3.75;;
12177;SDS011;6152;48.728;9.256;2023-07-09T04:46:39;4.22;;;3.70;;
12177;SDS011;6152;48.728;9.256;2023-07-09T04:49:06;4.75;;;3.80;;
12177;SDS011;6152;48.728;9.256;2023-07-09T04:51:32;5.38;;;3.88;;
12177;SDS011;6152;48.728;9.256;2023-07-09T04:53:58;7.22;;;4.05;;
12177;SDS011;6152;48.728;9.256;2023-07-09T04:56:29;4.43;;;3.88;;
12177;SDS011;6152;48.728;9.256;2023-07-09T04:58:55;5.30;;;3.42;;
12177;SDS011;6152;48.728;9.256;2023-07-09T05:01:22;5.03;;;3.95;;
12177;SDS011;6152;48.728;9.256;2023-07-09T05:03:48;4.75;;;3.95;;
12177;SDS011;6152;48.728;9.256;2023-07-09T05:06:15;4.45;;;3.63;;
12177;SDS011;6152;48.728;9.256;2023-07-09T05:08:41;4.50;;;3.83;;
12177;SDS011;6152;48.728;9.256;2023-07-09T05:11:08;4.57;;;4.10;;
12177;SDS011;6152;48.728;9.256;2023-07-09T05:13:36;5.22;;;3.95;;
12177;SDS011;6152;48.728;9.256;2023-07-09T05:16:02;5.07;;;4.13;;
12177;SDS011;6152;48.728;9.256;2023-07-09T05:18:28;4.38;;;3.60;;
12177;SDS011;6152;48.728;9.256;2023-07-09T05:20:54;3.97;;;3.28;;
12177;SDS011;6152;48.728;9.256;2023-07-09T05:23:21;4.07;;;3.40;;
12177;SDS011;6152;48.728;9.256;2023-07-09T05:25:49;4.75;;;4.00;;
12177;SDS011;6152;48.728;9.256;2023-07-09T05:28:25;7.18;;;3.72;;
12177;SDS011;6152;48.728;9.256;2023-07-09T05:30:52;4.03;;;3.65;;
12177;SDS011;6152;48.728;9.256;2023-07-09T05:33:18;4.68;;;3.40;;
12177;SDS011;6152;48.728;9.256;2023-07-09T05:35:44;5.25;;;4.10;;
12177;SDS011;6152;48.728;9.256;2023-07-09T05:38:12;4.63;;;4.10;;
12177;SDS011;6152;48.728;9.256;2023-07-09T05:40:38;4.55;;;3.83;;
12177;SDS011;6152;48.728;9.256;2023-07-09T05:43:05;5.18;;;3.60;;
12177;SDS011;6152;48.728;9.256;2023-07-09T05:45:31;5.93;;;4.18;;
12177;SDS011;6152;48.728;9.256;2023-07-09T05:48:01;4.07;;;3.65;;
12177;SDS011;6152;48.728;9.256;2023-07-09T05:50:28;4.43;;;3.92;;
12177;SDS011;6152;48.728;9.256;2023-07-09T05:52:54;4.22;;;3.33;;
12177;SDS011;6152;48.728;9.256;2023-07-09T05:55:20;4.47;;;3.72;;
12177;SDS011;6152;48.728;9.256;2023-07-09T05:57:46;4.88;;;4.07;;
12177;SDS011;6152;48.728;9.256;2023-07-09T06:00:12;5.97;;;4.20;;
12177;SDS011;6152;48.728;9.256;2023-07-09T06:02:39;4.95;;;3.85;;
12177;SDS011;6152;48.728;9.256;2023-07-09T06:05:05;4.50;;;4.00;;
12177;SDS011;6152;48.728;9.256;2023-07-09T06:07:34;7.22;;;3.85;;
12177;SDS011;6152;48.728;9.256;2023-07-09T06:10:00;3.78;;;3.47;;
12177;SDS011;6152;48.728;9.256;2023-07-09T06:12:26;5.40;;;3.70;;
12177;SDS011;6152;48.728;9.256;2023-07-09T06:14:52;6.43;;;4.05;;
12177;SDS011;6152;48.728;9.256;2023-07-09T06:17:18;5.78;;;3.72;;
12177;SDS011;6152;48.728;9.256;2023-07-09T06:19:45;6.68;;;4.18;;
12177;SDS011;6152;48.728;9.256;2023-07-09T06:22:11;4.13;;;3.75;;
12177;SDS011;6152;48.728;9.256;2023-07-09T06:24:37;6.13;;;4.10;;
12177;SDS011;6152;48.728;9.256;2023-07-09T06:27:03;5.43;;;3.88;;
12177;SDS011;6152;48.728;9.256;2023-07-09T06:29:29;4.65;;;3.97;;
12177;SDS011;6152;48.728;9.256;2023-07-09T06:31:55;4.55;;;3.70;;
12177;SDS011;6152;48.728;9.256;2023-07-09T06:34:22;4.40;;;3.80;;
12177;SDS011;6152;48.728;9.256;2023-07-09T06:36:48;4.00;;;3.60;;
12177;SDS011;6152;48.728;9.256;2023-07-09T06:39:14;4.75;;;3.55;;
12177;SDS011;6152;48.728;9.256;2023-07-09T06:41:41;7.10;;;4.13;;
12177;SDS011;6152;48.728;9.256;2023-07-09T06:44:07;3.88;;;3.53;;
12177;SDS011;6152;48.728;9.256;2023-07-09T06:46:34;4.20;;;3.88;;
12177;SDS011;6152;48.728;9.256;2023-07-09T06:49:01;5.40;;;3.60;;
12177;SDS011;6152;48.728;9.256;2023-07-09T06:51:30;9.18;;;4.03;;
12177;SDS011;6152;48.728;9.256;2023-07-09T06:53:56;4.93;;;3.50;;
12177;SDS011;6152;48.728;9.256;2023-07-09T06:56:23;5.47;;;3.90;;
12177;SDS011;6152;48.728;9.256;2023-07-09T06:58:49;4.65;;;3.97;;
12177;SDS011;6152;48.728;9.256;2023-07-09T07:01:15;6.28;;;4.22;;
12177;SDS011;6152;48.728;9.256;2023-07-09T07:03:41;4.85;;;4.20;;
12177;SDS011;6152;48.728;9.256;2023-07-09T07:06:08;8.90;;;4.30;;
12177;SDS011;6152;48.728;9.256;2023-07-09T07:08:34;4.03;;;3.63;;
12177;SDS011;6152;48.728;9.256;2023-07-09T07:11:01;5.00;;;4.18;;
12177;SDS011;6152;48.728;9.256;2023-07-09T07:13:39;5.68;;;4.13;;
12177;SDS011;6152;48.728;9.256;2023-07-09T07:16:07;4.95;;;3.40;;
12177;SDS011;6152;48.728;9.256;2023-07-09T07:18:35;5.10;;;3.45;;
12177;SDS011;6152;48.728;9.256;2023-07-09T07:21:02;6.07;;;3.90;;
12177;SDS011;6152;48.728;9.256;2023-07-09T07:23:29;5.22;;;3.85;;
12177;SDS011;6152;48.728;9.256;2023-07-09T07:25:55;5.47;;;4.05;;
12177;SDS011;6152;48.728;9.256;2023-07-09T07:28:22;5.60;;;4.15;;
12177;SDS011;6152;48.728;9.256;2023-07-09T07:30:58;4.78;;;3.67;;
12177;SDS011;6152;48.728;9.256;2023-07-09T07:33:25;5.57;;;3.60;;
12177;SDS011;6152;48.728;9.256;2023-07-09T07:35:51;4.47;;;3.67;;
12177;SDS011;6152;48.728;9.256;2023-07-09T07:38:17;6.30;;;3.90;;
12177;SDS011;6152;48.728;9.256;2023-07-09T07:40:44;4.97;;;3.55;;
12177;SDS011;6152;48.728;9.256;2023-07-09T07:43:10;8.32;;;3.88;;
12177;SDS011;6152;48.728;9.256;2023-07-09T07:45:40;4.35;;;3.60;;
12177;SDS011;6152;48.728;9.256;2023-07-09T07:48:06;6.82;;;3.88;;
12177;SDS011;6152;48.728;9.256;2023-07-09T07:50:33;4.65;;;3.75;;
12177;SDS011;6152;48.728;9.256;2023-07-09T07:52:59;6.00;;;3.75;;
12177;SDS011;6152;48.728;9.256;2023-07-09T07:55:25;4.40;;;3.58;;
12177;SDS011;6152;48.728;9.256;2023-07-09T07:57:52;4.65;;;3.72;;
12177;SDS011;6152;48.728;9.256;2023-07-09T08:00:18;6.00;;;3.70;;
12177;SDS011;6152;48.728;9.256;2023-07-09T08:02:44;5.75;;;3.40;;
12177;SDS011;6152;48.728;9.256;2023-07-09T08:05:11;5.38;;;3.92;;
12177;SDS011;6152;48.728;9.256;2023-07-09T08:07:37;4.25;;;3.47;;
12177;SDS011;6152;48.728;9.256;2023-07-09T08:10:03;4.57;;;3.80;;
12177;SDS011;6152;48.728;9.256;2023-07-09T08:12:30;3.47;;;3.17;;
12177;SDS011;6152;48.728;9.256;2023-07-09T08:14:56;5.97;;;3.50;;
12177;SDS011;6152;48.728;9.256;2023-07-09T08:17:22;3.45;;;3.15;;
12177;SDS011;6152;48.728;9.256;2023-07-09T08:19:52;3.95;;;3.13;;
12177;SDS011;6152;48.728;9.256;2023-07-09T08:22:19;4.93;;;2.88;;
12177;SDS011;6152;48.728;9.256;2023-07-09T08:24:47;4.40;;;4.00;;
12177;SDS011;6152;48.728;9.256;2023-07-09T08:27:13;4.03;;;3.05;;
12177;SDS011;6152;48.728;9.256;2023-07-09T08:29:39;3.78;;;3.38;;
12177;SDS011;6152;48.728;9.256;2023-07-09T08:32:07;4.07;;;3.25;;
12177;SDS011;6152;48.728;9.256;2023-07-09T08:34:34;4.40;;;3.03;;
12177;SDS011;6152;48.728;9.256;2023-07-09T08:37:03;3.30;;;2.85;;
12177;SDS011;6152;48.728;9.256;2023-07-09T08:39:30;3.92;;;2.97;;
12177;SDS011;6152;48.728;9.256;2023-07-09T08:47:11;4.07;;;3.53;;
12177;SDS011;6152;48.728;9.256;2023-07-09T08:50:14;3.40;;;3.00;;
12177;SDS011;6152;48.728;9.256;2023-07-09T08:52:45;4.38;;;3.38;;
12177;SDS011;6152;48.728;9.256;2023-07-09T08:55:17;4.57;;;3.00;;
12177;SDS011;6152;48.728;9.256;2023-07-09T08:57:53;3.30;;;3.00;;
12177;SDS011;6152;48.728;9.256;2023-07-09T09:00:32;4.03;;;3.00;;
12177;SDS011;6152;48.728;9.256;2023-07-09T09:06:11;3.13;;;2.92;;
12177;SDS011;6152;48.728;9.256;2023-07-09T09:16:48;3.90;;;2.97;;
12177;SDS011;6152;48.728;9.256;2023-07-09T09:19:29;3.03;;;2.72;;
12177;SDS011;6152;48.728;9.256;2023-07-09T09:22:04;4.28;;;2.80;;
12177;SDS011;6152;48.728;9.256;2023-07-09T09:24:57;6.47;;;3.55;;
12177;SDS011;6152;48.728;9.256;2023-07-09T09:27:23;3.70;;;3.40;;
12177;SDS011;6152;48.728;9.256;2023-07-09T09:29:49;2.75;;;2.55;;
12177;SDS011;6152;48.728;9.256;2023-07-09T09:32:20;3.88;;;2.90;;
12177;SDS011;6152;48.728;9.256;2023-07-09T09:34:52;3.08;;;2.80;;
12177;SDS011;6152;48.728;9.256;2023-07-09T09:37:24;3.50;;;3.20;;
12177;SDS011;6152;48.728;9.256;2023-07-09T09:39:53;3.05;;;2.85;;
12177;SDS011;6152;48.728;9.256;2023-07-09T09:42:19;4.10;;;2.85;;
12177;SDS011;6152;48.728;9.256;2023-07-09T09:44:48;3.30;;;3.00;;
12177;SDS011;6152;48.728;9.256;2023-07-09T09:47:14;3.58;;;2.80;;
12177;SDS011;6152;48.728;9.256;2023-07-09T09:49:46;3.20;;;2.90;;
12177;SDS011;6152;48.728;9.256;2023-07-09T09:52:18;3.03;;;2.83;;
12177;SDS011;6152;48.728;9.256;2023-07-09T09:54:52;4.30;;;2.92;;
12177;SDS011;6152;48.728;9.256;2023-07-09T09:57:27;3.22;;;2.92;;
12177;SDS011;6152;48.728;9.256;2023-07-09T09:59:56;4.43;;;2.90;;
12177;SDS011;6152;48.728;9.256;2023-07-09T10:02:24;3.25;;;3.05;;
12177;SDS011;6152;48.728;9.256;2023-07-09T10:04:51;2.70;;;2.50;;
12177;SDS011;6152;48.728;9.256;2023-07-09T10:09:49;3.25;;;2.90;;
12177;SDS011;6152;48.728;9.256;2023-07-09T10:15:14;3.35;;;3.00;;
12177;SDS011;6152;48.728;9.256;2023-07-09T10:17:57;3.13;;;2.88;;
12177;SDS011;6152;48.728;9.256;2023-07-09T10:20:51;3.47;;;2.38;;
12177;SDS011;6152;48.728;9.256;2023-07-09T10:23:32;5.13;;;3.10;;
12177;SDS011;6152;48.728;9.256;2023-07-09T10:26:27;2.85;;;2.60;;
12177;SDS011;6152;48.728;9.256;2023-07-09T10:32:16;5.00;;;2.70;;
12177;SDS011;6152;48.728;9.256;2023-07-09T10:35:06;4.38;;;2.78;;
12177;SDS011;6152;48.728;9.256;2023-07-09T10:38:02;2.65;;;2.40;;
12177;SDS011;6152;48.728;9.256;2023-07-09T10:40:40;2.75;;;2.63;;
12177;SDS011;6152;48.728;9.256;2023-07-09T10:43:48;2.95;;;2.72;;
12177;SDS011;6152;48.728;9.256;2023-07-09T10:46:26;3.53;;;3.22;;
12177;SDS011;6152;48.728;9.256;2023-07-09T10:48:57;3.20;;;3.00;;
12177;SDS011;6152;48.728;9.256;2023-07-09T10:51:32;3.63;;;3.33;;
12177;SDS011;6152;48.728;9.256;2023-07-09T10:56:44;5.50;;;3.20;;
12177;SDS011;6152;48.728;9.256;2023-07-09T10:59:20;3.15;;;2.95;;
12177;SDS011;6152;48.728;9.256;2023-07-09T11:04:45;3.30;;;3.10;;
12177;SDS011;6152;48.728;9.256;2023-07-09T11:07:18;3.88;;;3.10;;
12177;SDS011;6152;48.728;9.256;2023-07-09T11:09:50;4.15;;;3.30;;
12177;SDS011;6152;48.728;9.256;2023-07-09T11:12:24;3.65;;;3.35;;
12177;SDS011;6152;48.728;9.256;2023-07-09T11:15:09;3.47;;;3.22;;
12177;SDS011;6152;48.728;9.256;2023-07-09T11:17:40;3.30;;;3.00;;
12177;SDS011;6152;48.728;9.256;2023-07-09T11:20:18;3.78;;;3.45;;
12177;SDS011;6152;48.728;9.256;2023-07-09T11:23:02;4.00;;;3.45;;
12177;SDS011;6152;48.728;9.256;2023-07-09T11:28:41;3.50;;;3.30;;
12177;SDS011;6152;48.728;9.256;2023-07-09T11:31:31;3.88;;;3.67;;
12177;SDS011;6152;48.728;9.256;2023-07-09T11:36:46;5.22;;;3.53;;
12177;SDS011;6152;48.728;9.256;2023-07-09T11:39:20;4.47;;;4.07;;
12177;SDS011;6152;48.728;9.256;2023-07-09T11:41:51;5.25;;;3.58;;
12177;SDS011;6152;48.728;9.256;2023-07-09T11:44:28;3.58;;;3.33;;
12177;SDS011;6152;48.728;9.256;2023-07-09T11:52:24;4.20;;;3.80;;
12177;SDS011;6152;48.728;9.256;2023-07-09T11:54:56;4.72;;;4.32;;
12177;SDS011;6152;48.728;9.256;2023-07-09T11:57:22;5.47;;;3.83;;
12177;SDS011;6152;48.728;9.256;2023-07-09T11:59:48;3.50;;;3.30;;
12177;SDS011;6152;48.728;9.256;2023-07-09T12:02:18;4.55;;;3.70;;
12177;SDS011;6152;48.728;9.256;2023-07-09T12:04:49;3.78;;;3.50;;
12177;SDS011;6152;48.728;9.256;2023-07-09T12:07:16;4.28;;;3.88;;
12177;SDS011;6152;48.728;9.256;2023-07-09T12:09:48;4.47;;;3.63;;
12177;SDS011;6152;48.728;9.256;2023-07-09T12:12:25;4.10;;;3.80;;
12177;SDS011;6152;48.728;9.256;2023-07-09T12:14:52;7.20;;;3.10;;
12177;SDS011;6152;48.728;9.256;2023-07-09T12:17:22;3.85;;;3.30;;
12177;SDS011;6152;48.728;9.256;2023-07-09T12:19:52;3.90;;;3.30;;
12177;SDS011;6152;48.728;9.256;2023-07-09T12:22:19;4.97;;;3.10;;
12177;SDS011;6152;48.728;9.256;2023-07-09T12:24:47;5.95;;;3.15;;
12177;SDS011;6152;48.728;9.256;2023-07-09T12:27:19;4.15;;;2.92;;
12177;SDS011;6152;48.728;9.256;2023-07-09T12:29:50;5.28;;;2.95;;
12177;SDS011;6152;48.728;9.256;2023-07-09T12:32:21;4.22;;;3.10;;
12177;SDS011;6152;48.728;9.256;2023-07-09T12:34:51;5.07;;;3.10;;
12177;SDS011;6152;48.728;9.256;2023-07-09T12:37:19;4.95;;;3.45;;
12177;SDS011;6152;48.728;9.256;2023-07-09T12:39:50;5.30;;;3.03;;
12177;SDS011;6152;48.728;9.256;2023-07-09T12:42:21;5.15;;;3.40;;
12177;SDS011;6152;48.728;9.256;2023-07-09T12:44:55;3.95;;;2.78;;
12177;SDS011;6152;48.728;9.256;2023-07-09T12:47:21;3.13;;;2.60;;
12177;SDS011;6152;48.728;9.256;2023-07-09T12:49:50;6.85;;;3.50;;
12177;SDS011;6152;48.728;9.256;2023-07-09T12:52:25;3.90;;;3.00;;
12177;SDS011;6152;48.728;9.256;2023-07-09T12:54:52;3.78;;;2.85;;
12177;SDS011;6152;48.728;9.256;2023-07-09T12:57:22;5.50;;;2.70;;
12177;SDS011;6152;48.728;9.256;2023-07-09T12:59:49;4.15;;;3.10;;
12177;SDS011;6152;48.728;9.256;2023-07-09T13:04:47;5.05;;;3.30;;
12177;SDS011;6152;48.728;9.256;2023-07-09T13:09:53;5.47;;;3.00;;
12177;SDS011;6152;48.728;9.256;2023-07-09T13:12:20;3.92;;;3.28;;
12177;SDS011;6152;48.728;9.256;2023-07-09T13:14:56;7.80;;;3.60;;
12177;SDS011;6152;48.728;9.256;2023-07-09T13:17:22;3.22;;;2.40;;
12177;SDS011;6152;48.728;9.256;2023-07-09T13:19:53;3.17;;;2.95;;
12177;SDS011;6152;48.728;9.256;2023-07-09T13:22:21;6.72;;;2.70;;
12177;SDS011;6152;48.728;9.256;2023-07-09T13:24:48;4.85;;;2.83;;
12177;SDS011;6152;48.728;9.256;2023-07-09T13:27:15;4.82;;;2.83;;
12177;SDS011;6152;48.728;9.256;2023-07-09T13:29:41;5.43;;;3.35;;
12177;SDS011;6152;48.728;9.256;2023-07-09T13:32:11;5.07;;;3.42;;
12177;SDS011;6152;48.728;9.256;2023-07-09T13:34:39;5.32;;;2.75;;
12177;SDS011;6152;48.728;9.256;2023-07-09T13:37:08;3.10;;;2.80;;
12177;SDS011;6152;48.728;9.256;2023-07-09T13:39:38;4.88;;;2.90;;
12177;SDS011;6152;48.728;9.256;2023-07-09T13:42:05;5.47;;;3.15;;
12177;SDS011;6152;48.728;9.256;2023-07-09T13:44:36;3.90;;;2.58;;
12177;SDS011;6152;48.728;9.256;2023-07-09T13:47:03;4.03;;;2.58;;
12177;SDS011;6152;48.728;9.256;2023-07-09T13:49:30;3.90;;;2.80;;
12177;SDS011;6152;48.728;9.256;2023-07-09T13:51:57;4.18;;;2.90;;
12177;SDS011;6152;48.728;9.256;2023-07-09T13:54:26;4.43;;;3.13;;
12177;SDS011;6152;48.728;9.256;2023-07-09T13:57:00;4.32;;;2.80;;
12177;SDS011;6152;48.728;9.256;2023-07-09T13:59:28;6.78;;;3.38;;
12177;SDS011;6152;48.728;9.256;2023-07-09T14:01:55;6.18;;;3.20;;
12177;SDS011;6152;48.728;9.256;2023-07-09T14:04:23;4.60;;;2.38;;
12177;SDS011;6152;48.728;9.256;2023-07-09T14:06:51;5.63;;;3.15;;
12177;SDS011;6152;48.728;9.256;2023-07-09T14:09:17;3.13;;;2.65;;
12177;SDS011;6152;48.728;9.256;2023-07-09T14:14:21;2.63;;;2.40;;
12177;SDS011;6152;48.728;9.256;2023-07-09T14:16:49;5.03;;;2.58;;
12177;SDS011;6152;48.728;9.256;2023-07-09T14:19:17;6.18;;;2.50;;
12177;SDS011;6152;48.728;9.256;2023-07-09T14:21:46;3.72;;;2.40;;
12177;SDS011;6152;48.728;9.256;2023-07-09T14:24:24;3.53;;;2.63;;
12177;SDS011;6152;48.728;9.256;2023-07-09T14:26:52;3.03;;;2.70;;
12177;SDS011;6152;48.728;9.256;2023-07-09T14:29:19;3.50;;;2.55;;
12177;SDS011;6152;48.728;9.256;2023-07-09T14:31:46;3.53;;;2.65;;
12177;SDS011;6152;48.728;9.256;2023-07-09T14:36:45;2.75;;;2.50;;
12177;SDS011;6152;48.728;9.256;2023-07-09T14:39:11;2.88;;;2.40;;
12177;SDS011;6152;48.728;9.256;2023-07-09T14:41:37;3.15;;;2.67;;
12177;SDS011;6152;48.728;9.256;2023-07-09T14:44:23;3.70;;;2.55;;
12177;SDS011;6152;48.728;9.256;2023-07-09T14:46:50;3.95;;;2.30;;
12177;SDS011;6152;48.728;9.256;2023-07-09T14:49:18;3.75;;;2.63;;
12177;SDS011;6152;48.728;9.256;2023-07-09T14:51:44;3.67;;;2.45;;
12177;SDS011;6152;48.728;9.256;2023-07-09T14:56:46;3.80;;;2.70;;
12177;SDS011;6152;48.728;9.256;2023-07-09T14:59:13;3.00;;;2.33;;
12177;SDS011;6152;48.728;9.256;2023-07-09T15:01:39;5.35;;;2.75;;
12177;SDS011;6152;48.728;9.256;2023-07-09T15:04:09;7.00;;;2.78;;
12177;SDS011;6152;48.728;9.256;2023-07-09T15:06:56;4.13;;;3.05;;
12177;SDS011;6152;48.728;9.256;2023-07-09T15:09:26;3.38;;;3.00;;
12177;SDS011;6152;48.728;9.256;2023-07-09T15:11:56;4.75;;;2.53;;
12177;SDS011;6152;48.728;9.256;2023-07-09T15:14:24;4.45;;;2.40;;
12177;SDS011;6152;48.728;9.256;2023-07-09T15:16:51;3.63;;;2.72;;
12177;SDS011;6152;48.728;9.256;2023-07-09T15:19:19;3.42;;;2.58;;
12177;SDS011;6152;48.728;9.256;2023-07-09T15:21:47;2.42;;;2.22;;
12177;SDS011;6152;48.728;9.256;2023-07-09T15:24:35;4.35;;;2.08;;
12177;SDS011;6152;48.728;9.256;2023-07-09T15:27:01;3.88;;;2.58;;
12177;SDS011;6152;48.728;9.256;2023-07-09T15:29:29;4.60;;;2.90;;
12177;SDS011;6152;48.728;9.256;2023-07-09T15:31:56;2.85;;;2.20;;
12177;SDS011;6152;48.728;9.256;2023-07-09T15:34:23;4.28;;;2.75;;
12177;SDS011;6152;48.728;9.256;2023-07-09T15:36:50;2.92;;;2.38;;
12177;SDS011;6152;48.728;9.256;2023-07-09T15:39:18;3.17;;;2.25;;
12177;SDS011;6152;48.728;9.256;2023-07-09T15:41:45;2.58;;;2.30;;
12177;SDS011;6152;48.728;9.256;2023-07-09T15:44:15;1.90;;;1.80;;
12177;SDS011;6152;48.728;9.256;2023-07-09T15:46:52;4.80;;;2.45;;
12177;SDS011;6152;48.728;9.256;2023-07-09T15:49:21;3.75;;;2.67;;
12177;SDS011;6152;48.728;9.256;2023-07-09T15:51:48;3.08;;;2.50;;
12177;SDS011;6152;48.728;9.256;2023-07-09T15:54:15;2.92;;;2.38;;
12177;SDS011;6152;48.728;9.256;2023-07-09T15:56:45;2.45;;;2.10;;
12177;SDS011;6152;48.728;9.256;2023-07-09T15:59:30;4.03;;;2.25;;
12177;SDS011;6152;48.728;9.256;2023-07-09T16:02:00;5.22;;;2.35;;
12177;SDS011;6152;48.728;9.256;2023-07-09T16:04:28;3.03;;;1.98;;
12177;SDS011;6152;48.728;9.256;2023-07-09T16:06:54;4.35;;;2.20;;
12177;SDS011;6152;48.728;9.256;2023-07-09T16:09:21;4.15;;;2.40;;
12177;SDS011;6152;48.728;9.256;2023-07-09T16:11:51;3.55;;;2.25;;
12177;SDS011;6152;48.728;9.256;2023-07-09T16:14:30;2.75;;;2.33;;
12177;SDS011;6152;48.728;9.256;2023-07-09T16:16:58;2.78;;;2.28;;